sensor_id;sensor_type;location;lat;lon;timestamp;pressure;altitude;pressure_sealevel;temperature;humidity
75008;BME280;63554;48.940;12.050;2023-03-03T00:02:32;97428.69;;;1.86;71.10
75008;BME280;63554;48.940;12.050;2023-03-03T00:06:35;97426.38;;;1.83;71.21
75008;BME280;63554;48.940;12.050;2023-03-03T00:10:38;97433.19;;;1.77;71.17
75008;BME280;63554;48.940;12.050;2023-03-03T00:14:42;97434.31;;;1.74;71.24
75008;BME280;63554;48.940;12.050;2023-03-03T00:18:46;97438.97;;;1.72;70.86
75008;BME280;63554;48.940;12.050;2023-03-03T00:22:49;97443.50;;;1.72;71.08
75008;BME280;63554;48.940;12.050;2023-03-03T00:26:53;97443.63;;;1.62;71.23
75008;BME280;63554;48.940;12.050;2023-03-03T00:30:59;97446.78;;;1.57;71.07
75008;BME280;63554;48.940;12.050;2023-03-03T00:35:18;97447.44;;;1.51;71.23
75008;BME280;63554;48.940;12.050;2023-03-03T00:39:28;97453.59;;;1.52;71.32
75008;BME280;63554;48.940;12.050;2023-03-03T00:43:34;97452.22;;;1.40;71.85
75008;BME280;63554;48.940;12.050;2023-03-03T00:47:42;97445.97;;;1.31;71.94
75008;BME280;63554;48.940;12.050;2023-03-03T00:51:45;97451.78;;;1.26;72.36
75008;BME280;63554;48.940;12.050;2023-03-03T00:55:49;97455.78;;;1.22;72.29
75008;BME280;63554;48.940;12.050;2023-03-03T00:59:52;97449.50;;;1.05;72.72
75008;BME280;63554;48.940;12.050;2023-03-03T01:03:56;97451.28;;;0.96;73.04
75008;BME280;63554;48.940;12.050;2023-03-03T01:07:59;97442.19;;;0.81;73.53
75008;BME280;63554;48.940;12.050;2023-03-03T01:12:01;97451.16;;;0.80;73.57
75008;BME280;63554;48.940;12.050;2023-03-03T01:16:05;97436.16;;;0.71;73.54
75008;BME280;63554;48.940;12.050;2023-03-03T01:20:11;97435.47;;;0.69;73.86
75008;BME280;63554;48.940;12.050;2023-03-03T01:24:14;97435.56;;;0.59;74.16
75008;BME280;63554;48.940;12.050;2023-03-03T01:28:17;97431.69;;;0.53;74.20
75008;BME280;63554;48.940;12.050;2023-03-03T01:32:20;97428.00;;;0.54;74.07
75008;BME280;63554;48.940;12.050;2023-03-03T01:36:25;97433.97;;;0.48;74.16
75008;BME280;63554;48.940;12.050;2023-03-03T01:40:29;97443.47;;;0.33;74.70
75008;BME280;63554;48.940;12.050;2023-03-03T01:44:32;97435.72;;;0.22;75.73
75008;BME280;63554;48.940;12.050;2023-03-03T01:48:38;97442.94;;;0.11;75.68
75008;BME280;63554;48.940;12.050;2023-03-03T01:52:45;97448.59;;;0.08;76.19
75008;BME280;63554;48.940;12.050;2023-03-03T01:56:48;97437.56;;;0.03;75.99
75008;BME280;63554;48.940;12.050;2023-03-03T02:00:55;97451.94;;;0.10;76.34
75008;BME280;63554;48.940;12.050;2023-03-03T02:04:59;97448.59;;;0.08;76.30
75008;BME280;63554;48.940;12.050;2023-03-03T02:09:06;97445.53;;;0.03;76.40
75008;BME280;63554;48.940;12.050;2023-03-03T02:13:12;97443.47;;;-0.03;76.54
75008;BME280;63554;48.940;12.050;2023-03-03T02:17:16;97456.78;;;-0.03;77.44
75008;BME280;63554;48.940;12.050;2023-03-03T02:21:20;97460.47;;;-0.14;78.13
75008;BME280;63554;48.940;12.050;2023-03-03T02:25:29;97451.28;;;-0.19;78.13
75008;BME280;63554;48.940;12.050;2023-03-03T02:29:35;97451.34;;;-0.29;78.72
75008;BME280;63554;48.940;12.050;2023-03-03T02:33:38;97448.22;;;-0.43;79.47
75008;BME280;63554;48.940;12.050;2023-03-03T02:37:41;97453.13;;;-0.48;79.78
75008;BME280;63554;48.940;12.050;2023-03-03T02:41:48;97458.06;;;-0.53;80.67
75008;BME280;63554;48.940;12.050;2023-03-03T02:45:55;97454.16;;;-0.58;80.83
75008;BME280;63554;48.940;12.050;2023-03-03T02:49:58;97461.03;;;-0.66;80.60
75008;BME280;63554;48.940;12.050;2023-03-03T02:54:01;97453.91;;;-0.65;80.29
75008;BME280;63554;48.940;12.050;2023-03-03T02:58:04;97452.97;;;-0.74;80.42
75008;BME280;63554;48.940;12.050;2023-03-03T03:02:08;97450.44;;;-0.75;81.50
75008;BME280;63554;48.940;12.050;2023-03-03T03:06:11;97457.28;;;-0.73;81.04
75008;BME280;63554;48.940;12.050;2023-03-03T03:10:14;97454.03;;;-0.67;81.22
75008;BME280;63554;48.940;12.050;2023-03-03T03:14:17;97448.88;;;-0.68;81.39
75008;BME280;63554;48.940;12.050;2023-03-03T03:18:21;97452.25;;;-0.66;81.01
75008;BME280;63554;48.940;12.050;2023-03-03T03:22:23;97451.69;;;-0.70;81.11
75008;BME280;63554;48.940;12.050;2023-03-03T03:26:26;97452.13;;;-0.74;81.43
75008;BME280;63554;48.940;12.050;2023-03-03T03:30:29;97447.25;;;-0.79;81.49
75008;BME280;63554;48.940;12.050;2023-03-03T03:34:33;97450.91;;;-0.80;81.50
75008;BME280;63554;48.940;12.050;2023-03-03T03:38:36;97454.84;;;-0.84;81.11
75008;BME280;63554;48.940;12.050;2023-03-03T03:42:39;97452.31;;;-0.86;81.17
75008;BME280;63554;48.940;12.050;2023-03-03T03:46:42;97445.75;;;-0.91;80.79
75008;BME280;63554;48.940;12.050;2023-03-03T03:50:47;97444.94;;;-0.92;80.25
75008;BME280;63554;48.940;12.050;2023-03-03T03:54:50;97455.84;;;-0.95;80.50
75008;BME280;63554;48.940;12.050;2023-03-03T03:58:53;97467.59;;;-0.97;80.90
75008;BME280;63554;48.940;12.050;2023-03-03T04:02:55;97463.56;;;-1.02;80.83
75008;BME280;63554;48.940;12.050;2023-03-03T04:06:59;97457.56;;;-1.04;81.04
75008;BME280;63554;48.940;12.050;2023-03-03T04:11:02;97463.00;;;-1.05;81.08
75008;BME280;63554;48.940;12.050;2023-03-03T04:15:06;97457.00;;;-1.07;81.19
75008;BME280;63554;48.940;12.050;2023-03-03T04:19:09;97457.97;;;-1.08;81.27
75008;BME280;63554;48.940;12.050;2023-03-03T04:23:13;97463.28;;;-1.08;81.24
75008;BME280;63554;48.940;12.050;2023-03-03T04:27:16;97463.72;;;-1.13;81.99
75008;BME280;63554;48.940;12.050;2023-03-03T04:31:19;97464.00;;;-1.16;81.16
75008;BME280;63554;48.940;12.050;2023-03-03T04:35:21;97466.13;;;-1.20;81.35
75008;BME280;63554;48.940;12.050;2023-03-03T04:39:26;97473.22;;;-1.20;81.35
75008;BME280;63554;48.940;12.050;2023-03-03T04:43:30;97469.31;;;-1.26;81.89
75008;BME280;63554;48.940;12.050;2023-03-03T04:47:32;97473.09;;;-1.28;81.63
75008;BME280;63554;48.940;12.050;2023-03-03T04:51:37;97474.78;;;-1.27;81.50
75008;BME280;63554;48.940;12.050;2023-03-03T04:55:41;97474.78;;;-1.27;81.31
75008;BME280;63554;48.940;12.050;2023-03-03T04:59:44;97474.59;;;0.14;91.78
75008;BME280;63554;48.940;12.050;2023-03-03T05:03:46;97484.63;;;-0.25;89.68
75008;BME280;63554;48.940;12.050;2023-03-03T05:07:49;97485.09;;;-0.67;86.72
75008;BME280;63554;48.940;12.050;2023-03-03T05:11:53;97486.19;;;-0.97;83.47
75008;BME280;63554;48.940;12.050;2023-03-03T05:15:56;97491.66;;;-1.18;83.70
75008;BME280;63554;48.940;12.050;2023-03-03T05:19:58;97504.53;;;-1.33;84.08
75008;BME280;63554;48.940;12.050;2023-03-03T05:24:01;97513.06;;;-1.40;84.72
75008;BME280;63554;48.940;12.050;2023-03-03T05:28:05;97503.84;;;-1.35;84.19
75008;BME280;63554;48.940;12.050;2023-03-03T05:32:07;97502.19;;;-1.36;84.15
75008;BME280;63554;48.940;12.050;2023-03-03T05:36:10;97507.34;;;-1.45;84.51
75008;BME280;63554;48.940;12.050;2023-03-03T05:40:13;97515.44;;;-1.36;84.54
75008;BME280;63554;48.940;12.050;2023-03-03T05:44:17;97516.56;;;-1.39;84.69
75008;BME280;63554;48.940;12.050;2023-03-03T05:48:21;97518.94;;;-1.36;84.95
75008;BME280;63554;48.940;12.050;2023-03-03T05:52:23;97514.19;;;-1.32;84.10
75008;BME280;63554;48.940;12.050;2023-03-03T05:56:26;97520.88;;;-1.28;84.58
75008;BME280;63554;48.940;12.050;2023-03-03T06:00:30;97507.63;;;-1.28;83.71
75008;BME280;63554;48.940;12.050;2023-03-03T06:04:33;97518.09;;;-1.27;83.79
75008;BME280;63554;48.940;12.050;2023-03-03T06:08:35;97525.22;;;-1.27;84.11
75008;BME280;63554;48.940;12.050;2023-03-03T06:12:38;97530.94;;;-1.22;83.99
75008;BME280;63554;48.940;12.050;2023-03-03T06:16:43;97520.19;;;-1.21;83.60
75008;BME280;63554;48.940;12.050;2023-03-03T06:20:50;97529.41;;;-1.15;82.83
75008;BME280;63554;48.940;12.050;2023-03-03T06:24:53;97535.09;;;-1.10;80.97
75008;BME280;63554;48.940;12.050;2023-03-03T06:28:55;97533.44;;;-1.01;78.52
75008;BME280;63554;48.940;12.050;2023-03-03T06:32:59;97534.38;;;-0.92;77.27
75008;BME280;63554;48.940;12.050;2023-03-03T06:37:02;97539.97;;;-0.86;76.73
75008;BME280;63554;48.940;12.050;2023-03-03T06:41:05;97551.69;;;-0.78;76.58
75008;BME280;63554;48.940;12.050;2023-03-03T06:45:09;97553.09;;;-0.74;76.12
75008;BME280;63554;48.940;12.050;2023-03-03T06:49:13;97564.00;;;-0.68;75.76
75008;BME280;63554;48.940;12.050;2023-03-03T06:53:17;97561.06;;;-0.65;74.88
75008;BME280;63554;48.940;12.050;2023-03-03T06:57:25;97571.09;;;-0.58;74.89
75008;BME280;63554;48.940;12.050;2023-03-03T07:01:32;97561.81;;;-0.45;74.74
75008;BME280;63554;48.940;12.050;2023-03-03T07:05:37;97584.88;;;-0.35;74.70
75008;BME280;63554;48.940;12.050;2023-03-03T07:09:43;97583.63;;;-0.31;75.08
75008;BME280;63554;48.940;12.050;2023-03-03T07:13:48;97580.09;;;-0.32;74.29
75008;BME280;63554;48.940;12.050;2023-03-03T07:17:54;97578.41;;;-0.23;73.55
75008;BME280;63554;48.940;12.050;2023-03-03T07:22:10;97580.56;;;-0.09;73.66
75008;BME280;63554;48.940;12.050;2023-03-03T07:26:15;97597.34;;;-0.08;72.87
75008;BME280;63554;48.940;12.050;2023-03-03T07:30:24;97597.81;;;0.15;72.36
75008;BME280;63554;48.940;12.050;2023-03-03T07:34:35;97597.47;;;0.28;72.23
75008;BME280;63554;48.940;12.050;2023-03-03T07:38:46;97590.41;;;0.36;71.75
75008;BME280;63554;48.940;12.050;2023-03-03T07:42:51;97598.13;;;0.39;71.15
75008;BME280;63554;48.940;12.050;2023-03-03T07:46:53;97598.13;;;0.39;70.44
75008;BME280;63554;48.940;12.050;2023-03-03T07:51:01;97584.56;;;0.51;70.59
75008;BME280;63554;48.940;12.050;2023-03-03T07:55:24;97603.13;;;0.61;69.21
75008;BME280;63554;48.940;12.050;2023-03-03T07:59:29;97602.78;;;0.55;69.93
75008;BME280;63554;48.940;12.050;2023-03-03T08:03:34;97613.28;;;0.75;70.57
75008;BME280;63554;48.940;12.050;2023-03-03T08:07:37;97623.38;;;1.25;69.35
75008;BME280;63554;48.940;12.050;2023-03-03T08:11:47;97620.75;;;1.77;67.63
75008;BME280;63554;48.940;12.050;2023-03-03T08:15:59;97610.81;;;2.22;66.28
75008;BME280;63554;48.940;12.050;2023-03-03T08:20:10;97615.44;;;2.54;64.93
75008;BME280;63554;48.940;12.050;2023-03-03T08:24:32;97617.16;;;2.72;64.55
75008;BME280;63554;48.940;12.050;2023-03-03T08:28:40;97613.50;;;2.97;64.82
75008;BME280;63554;48.940;12.050;2023-03-03T08:32:42;97607.53;;;3.20;63.23
75008;BME280;63554;48.940;12.050;2023-03-03T08:36:45;97611.69;;;3.31;61.92
75008;BME280;63554;48.940;12.050;2023-03-03T08:40:48;97610.69;;;3.48;62.17
75008;BME280;63554;48.940;12.050;2023-03-03T08:44:53;97627.22;;;3.85;61.82
75008;BME280;63554;48.940;12.050;2023-03-03T08:48:55;97621.34;;;3.81;60.25
75008;BME280;63554;48.940;12.050;2023-03-03T08:52:58;97633.06;;;3.80;62.48
75008;BME280;63554;48.940;12.050;2023-03-03T08:57:01;97633.75;;;3.74;60.98
75008;BME280;63554;48.940;12.050;2023-03-03T09:01:05;97631.25;;;3.81;61.20
75008;BME280;63554;48.940;12.050;2023-03-03T09:05:09;97630.47;;;4.11;59.76
75008;BME280;63554;48.940;12.050;2023-03-03T09:09:12;97636.75;;;4.35;59.54
75008;BME280;63554;48.940;12.050;2023-03-03T09:13:17;97636.25;;;4.40;58.07
75008;BME280;63554;48.940;12.050;2023-03-03T09:17:25;97644.59;;;4.53;58.70
75008;BME280;63554;48.940;12.050;2023-03-03T09:21:30;97654.66;;;4.82;59.20
75008;BME280;63554;48.940;12.050;2023-03-03T09:25:36;97653.63;;;5.38;57.42
75008;BME280;63554;48.940;12.050;2023-03-03T09:29:41;97655.47;;;5.60;56.58
75008;BME280;63554;48.940;12.050;2023-03-03T09:33:46;97647.53;;;5.67;56.87
75008;BME280;63554;48.940;12.050;2023-03-03T09:37:52;97651.34;;;5.72;54.08
75008;BME280;63554;48.940;12.050;2023-03-03T09:42:22;97653.00;;;5.97;55.34
75008;BME280;63554;48.940;12.050;2023-03-03T09:46:35;97642.94;;;6.13;55.23
75008;BME280;63554;48.940;12.050;2023-03-03T09:50:48;97650.88;;;6.37;55.06
75008;BME280;63554;48.940;12.050;2023-03-03T09:55:03;97649.69;;;6.39;55.86
75008;BME280;63554;48.940;12.050;2023-03-03T09:59:25;97641.13;;;6.65;56.77
75008;BME280;63554;48.940;12.050;2023-03-03T10:04:11;97641.84;;;6.89;53.96
75008;BME280;63554;48.940;12.050;2023-03-03T10:08:40;97633.59;;;7.12;55.51
75008;BME280;63554;48.940;12.050;2023-03-03T10:12:56;97643.03;;;7.44;53.82
75008;BME280;63554;48.940;12.050;2023-03-03T10:17:21;97649.00;;;7.40;52.05
75008;BME280;63554;48.940;12.050;2023-03-03T10:21:30;97655.09;;;7.48;53.41
75008;BME280;63554;48.940;12.050;2023-03-03T10:25:39;97645.69;;;7.87;53.40
75008;BME280;63554;48.940;12.050;2023-03-03T10:29:52;97647.25;;;8.31;52.91
75008;BME280;63554;48.940;12.050;2023-03-03T10:34:06;97646.41;;;8.31;49.86
75008;BME280;63554;48.940;12.050;2023-03-03T10:38:31;97656.00;;;8.40;51.38
75008;BME280;63554;48.940;12.050;2023-03-03T10:42:52;97641.69;;;8.40;51.93
75008;BME280;63554;48.940;12.050;2023-03-03T10:47:13;97642.91;;;8.02;51.08
75008;BME280;63554;48.940;12.050;2023-03-03T10:51:26;97647.50;;;8.08;52.37
75008;BME280;63554;48.940;12.050;2023-03-03T10:55:39;97636.13;;;8.76;50.33
75008;BME280;63554;48.940;12.050;2023-03-03T10:59:56;97639.75;;;9.10;50.15
75008;BME280;63554;48.940;12.050;2023-03-03T11:04:19;97635.06;;;9.52;50.08
75008;BME280;63554;48.940;12.050;2023-03-03T11:08:28;97638.22;;;9.82;48.54
75008;BME280;63554;48.940;12.050;2023-03-03T11:12:45;97637.34;;;10.42;46.75
75008;BME280;63554;48.940;12.050;2023-03-03T11:16:59;97627.91;;;10.58;45.85
75008;BME280;63554;48.940;12.050;2023-03-03T11:21:12;97621.34;;;10.07;46.00
75008;BME280;63554;48.940;12.050;2023-03-03T11:25:24;97629.84;;;10.17;46.91
75008;BME280;63554;48.940;12.050;2023-03-03T11:29:39;97628.91;;;10.70;46.64
75008;BME280;63554;48.940;12.050;2023-03-03T11:33:54;97620.16;;;11.20;45.61
75008;BME280;63554;48.940;12.050;2023-03-03T11:38:09;97622.66;;;11.21;44.18
75008;BME280;63554;48.940;12.050;2023-03-03T11:42:22;97620.03;;;11.01;44.53
75008;BME280;63554;48.940;12.050;2023-03-03T11:46:29;97615.31;;;10.90;45.42
75008;BME280;63554;48.940;12.050;2023-03-03T11:50:40;97604.38;;;10.65;46.25
75008;BME280;63554;48.940;12.050;2023-03-03T11:54:49;97599.63;;;10.99;46.02
75008;BME280;63554;48.940;12.050;2023-03-03T11:59:04;97593.97;;;11.07;44.97
75008;BME280;63554;48.940;12.050;2023-03-03T12:03:24;97593.41;;;11.30;45.53
75008;BME280;63554;48.940;12.050;2023-03-03T12:07:38;97592.75;;;11.92;43.73
75008;BME280;63554;48.940;12.050;2023-03-03T12:11:48;97595.19;;;12.43;43.32
75008;BME280;63554;48.940;12.050;2023-03-03T12:16:00;97586.44;;;12.78;43.25
75008;BME280;63554;48.940;12.050;2023-03-03T12:20:14;97588.00;;;13.16;40.80
75008;BME280;63554;48.940;12.050;2023-03-03T12:24:36;97586.88;;;12.20;41.78
75008;BME280;63554;48.940;12.050;2023-03-03T12:28:49;97585.09;;;12.51;42.22
75008;BME280;63554;48.940;12.050;2023-03-03T12:33:09;97578.41;;;13.02;45.06
75008;BME280;63554;48.940;12.050;2023-03-03T12:37:22;97570.31;;;12.65;41.41
75008;BME280;63554;48.940;12.050;2023-03-03T12:41:35;97578.59;;;11.90;42.86
75008;BME280;63554;48.940;12.050;2023-03-03T12:45:49;97559.44;;;12.46;44.78
75008;BME280;63554;48.940;12.050;2023-03-03T12:50:05;97555.88;;;12.83;41.24
75008;BME280;63554;48.940;12.050;2023-03-03T12:54:20;97548.63;;;12.58;41.18
75008;BME280;63554;48.940;12.050;2023-03-03T12:58:38;97547.56;;;12.29;41.48
75008;BME280;63554;48.940;12.050;2023-03-03T13:02:55;97541.06;;;12.49;41.98
75008;BME280;63554;48.940;12.050;2023-03-03T13:07:04;97541.03;;;13.28;40.16
75008;BME280;63554;48.940;12.050;2023-03-03T13:11:26;97533.44;;;13.83;41.26
75008;BME280;63554;48.940;12.050;2023-03-03T13:15:38;97538.72;;;14.61;39.94
75008;BME280;63554;48.940;12.050;2023-03-03T13:19:57;97521.09;;;14.40;37.98
75008;BME280;63554;48.940;12.050;2023-03-03T13:24:06;97526.97;;;14.72;39.33
75008;BME280;63554;48.940;12.050;2023-03-03T13:28:21;97528.06;;;14.59;36.46
75008;BME280;63554;48.940;12.050;2023-03-03T13:32:34;97534.22;;;14.55;36.93
75008;BME280;63554;48.940;12.050;2023-03-03T13:36:53;97539.38;;;14.16;38.14
75008;BME280;63554;48.940;12.050;2023-03-03T13:41:11;97531.41;;;14.38;38.71
75008;BME280;63554;48.940;12.050;2023-03-03T13:45:22;97536.13;;;14.42;38.37
75008;BME280;63554;48.940;12.050;2023-03-03T13:49:50;97532.94;;;14.34;37.95
75008;BME280;63554;48.940;12.050;2023-03-03T13:54:01;97524.88;;;14.91;36.79
75008;BME280;63554;48.940;12.050;2023-03-03T13:58:15;97528.81;;;15.12;36.29
75008;BME280;63554;48.940;12.050;2023-03-03T14:02:40;97524.03;;;15.36;36.54
75008;BME280;63554;48.940;12.050;2023-03-03T14:06:54;97527.22;;;15.45;35.30
75008;BME280;63554;48.940;12.050;2023-03-03T14:11:06;97531.84;;;14.70;36.46
75008;BME280;63554;48.940;12.050;2023-03-03T14:15:18;97518.66;;;14.79;35.97
75008;BME280;63554;48.940;12.050;2023-03-03T14:19:27;97507.53;;;14.97;36.48
75008;BME280;63554;48.940;12.050;2023-03-03T14:23:47;97508.97;;;15.17;35.52
75008;BME280;63554;48.940;12.050;2023-03-03T14:27:59;97501.81;;;14.82;35.64
75008;BME280;63554;48.940;12.050;2023-03-03T14:32:20;97505.25;;;14.77;35.91
75008;BME280;63554;48.940;12.050;2023-03-03T14:36:31;97503.53;;;15.17;35.58
75008;BME280;63554;48.940;12.050;2023-03-03T14:40:37;97494.25;;;15.47;35.67
75008;BME280;63554;48.940;12.050;2023-03-03T14:44:52;97498.50;;;15.26;35.50
75008;BME280;63554;48.940;12.050;2023-03-03T14:48:58;97491.16;;;15.26;35.06
75008;BME280;63554;48.940;12.050;2023-03-03T14:53:10;97484.59;;;14.53;35.00
75008;BME280;63554;48.940;12.050;2023-03-03T14:57:16;97481.22;;;14.34;34.98
75008;BME280;63554;48.940;12.050;2023-03-03T15:01:23;97479.16;;;14.53;35.60
75008;BME280;63554;48.940;12.050;2023-03-03T15:05:32;97472.13;;;14.69;35.01
75008;BME280;63554;48.940;12.050;2023-03-03T15:09:37;97471.38;;;15.02;34.08
75008;BME280;63554;48.940;12.050;2023-03-03T15:13:45;97469.47;;;15.02;34.17
75008;BME280;63554;48.940;12.050;2023-03-03T15:17:57;97464.13;;;15.08;34.83
75008;BME280;63554;48.940;12.050;2023-03-03T15:22:09;97482.06;;;15.20;34.19
75008;BME280;63554;48.940;12.050;2023-03-03T15:26:18;97471.75;;;14.77;34.90
75008;BME280;63554;48.940;12.050;2023-03-03T15:30:29;97477.13;;;14.60;35.17
75008;BME280;63554;48.940;12.050;2023-03-03T15:34:39;97481.06;;;14.40;35.32
75008;BME280;63554;48.940;12.050;2023-03-03T15:38:52;97483.63;;;14.07;36.53
75008;BME280;63554;48.940;12.050;2023-03-03T15:43:05;97488.28;;;13.94;35.95
75008;BME280;63554;48.940;12.050;2023-03-03T15:47:29;97484.13;;;13.92;35.75
75008;BME280;63554;48.940;12.050;2023-03-03T15:51:45;97486.97;;;13.73;35.41
75008;BME280;63554;48.940;12.050;2023-03-03T15:56:11;97489.81;;;13.55;35.26
75008;BME280;63554;48.940;12.050;2023-03-03T16:00:32;97477.63;;;13.57;35.29
75008;BME280;63554;48.940;12.050;2023-03-03T16:04:46;97488.59;;;12.97;36.93
75008;BME280;63554;48.940;12.050;2023-03-03T16:08:56;97489.09;;;12.75;37.44
75008;BME280;63554;48.940;12.050;2023-03-03T16:13:11;97493.28;;;12.90;37.88
75008;BME280;63554;48.940;12.050;2023-03-03T16:17:24;97499.25;;;12.98;37.39
75008;BME280;63554;48.940;12.050;2023-03-03T16:21:45;97494.50;;;12.63;37.78
75008;BME280;63554;48.940;12.050;2023-03-03T16:25:59;97501.47;;;12.22;39.01
75008;BME280;63554;48.940;12.050;2023-03-03T16:30:19;97507.25;;;11.89;40.15
75008;BME280;63554;48.940;12.050;2023-03-03T16:34:31;97502.94;;;11.81;41.22
75008;BME280;63554;48.940;12.050;2023-03-03T16:38:39;97516.59;;;11.68;47.42
75008;BME280;63554;48.940;12.050;2023-03-03T16:42:43;97519.00;;;11.58;43.25
75008;BME280;63554;48.940;12.050;2023-03-03T16:46:47;97525.47;;;11.32;42.69
75008;BME280;63554;48.940;12.050;2023-03-03T16:51:00;97529.41;;;11.04;50.21
75008;BME280;63554;48.940;12.050;2023-03-03T16:55:11;97524.13;;;11.16;49.38
75008;BME280;63554;48.940;12.050;2023-03-03T16:59:38;97539.94;;;11.19;51.03
75008;BME280;63554;48.940;12.050;2023-03-03T17:03:57;97533.53;;;10.75;45.54
75008;BME280;63554;48.940;12.050;2023-03-03T17:08:21;97536.28;;;10.09;46.57
75008;BME280;63554;48.940;12.050;2023-03-03T17:12:37;97550.25;;;9.60;47.86
75008;BME280;63554;48.940;12.050;2023-03-03T17:16:49;97557.09;;;9.22;49.32
75008;BME280;63554;48.940;12.050;2023-03-03T17:20:57;97557.28;;;9.01;50.37
75008;BME280;63554;48.940;12.050;2023-03-03T17:25:05;97559.03;;;8.60;51.82
75008;BME280;63554;48.940;12.050;2023-03-03T17:29:38;97566.56;;;8.37;51.97
75008;BME280;63554;48.940;12.050;2023-03-03T17:33:55;97569.22;;;8.23;52.24
75008;BME280;63554;48.940;12.050;2023-03-03T17:38:05;97574.53;;;8.10;53.46
75008;BME280;63554;48.940;12.050;2023-03-03T17:42:21;97582.97;;;8.00;53.38
75008;BME280;63554;48.940;12.050;2023-03-03T17:46:32;97575.06;;;7.92;53.30
75008;BME280;63554;48.940;12.050;2023-03-03T17:51:04;97599.66;;;7.82;53.70
75008;BME280;63554;48.940;12.050;2023-03-03T17:55:22;97599.25;;;7.57;54.70
75008;BME280;63554;48.940;12.050;2023-03-03T17:59:44;97605.66;;;7.35;55.85
75008;BME280;63554;48.940;12.050;2023-03-03T18:04:06;97604.00;;;7.12;56.55
75008;BME280;63554;48.940;12.050;2023-03-03T18:13:36;97609.22;;;6.62;58.27
75008;BME280;63554;48.940;12.050;2023-03-03T18:18:01;97608.09;;;6.35;58.49
75008;BME280;63554;48.940;12.050;2023-03-03T18:22:10;97622.06;;;6.30;59.04
75008;BME280;63554;48.940;12.050;2023-03-03T18:26:34;97619.13;;;6.25;59.30
75008;BME280;63554;48.940;12.050;2023-03-03T18:30:57;97623.00;;;6.08;59.18
75008;BME280;63554;48.940;12.050;2023-03-03T18:35:24;97631.72;;;5.87;59.49
75008;BME280;63554;48.940;12.050;2023-03-03T18:39:38;97635.34;;;5.79;60.11
75008;BME280;63554;48.940;12.050;2023-03-03T18:43:53;97641.03;;;5.61;60.74
75008;BME280;63554;48.940;12.050;2023-03-03T18:48:08;97650.16;;;5.52;61.12
75008;BME280;63554;48.940;12.050;2023-03-03T18:52:21;97649.19;;;5.45;61.28
75008;BME280;63554;48.940;12.050;2023-03-03T18:56:41;97653.50;;;5.31;61.44
75008;BME280;63554;48.940;12.050;2023-03-03T19:00:46;97653.47;;;5.16;61.87
75008;BME280;63554;48.940;12.050;2023-03-03T19:04:53;97657.31;;;5.13;62.66
75008;BME280;63554;48.940;12.050;2023-03-03T19:08:57;97661.50;;;5.16;62.98
75008;BME280;63554;48.940;12.050;2023-03-03T19:13:01;97667.59;;;5.10;63.52
75008;BME280;63554;48.940;12.050;2023-03-03T19:21:41;97663.16;;;4.94;65.35
75008;BME280;63554;48.940;12.050;2023-03-03T19:25:45;97664.19;;;4.85;65.07
75008;BME280;63554;48.940;12.050;2023-03-03T19:34:29;97656.16;;;4.45;64.56
75008;BME280;63554;48.940;12.050;2023-03-03T19:38:41;97666.59;;;4.32;65.05
75008;BME280;63554;48.940;12.050;2023-03-03T19:42:52;97660.78;;;4.20;65.38
75008;BME280;63554;48.940;12.050;2023-03-03T19:47:02;97659.94;;;4.11;66.39
75008;BME280;63554;48.940;12.050;2023-03-03T19:51:10;97665.19;;;3.88;67.05
75008;BME280;63554;48.940;12.050;2023-03-03T19:55:23;97668.72;;;3.72;68.15
75008;BME280;63554;48.940;12.050;2023-03-03T19:59:32;97667.19;;;3.70;68.68
75008;BME280;63554;48.940;12.050;2023-03-03T20:04:02;97676.06;;;3.54;69.77
75008;BME280;63554;48.940;12.050;2023-03-03T20:08:14;97672.06;;;3.42;70.17
75008;BME280;63554;48.940;12.050;2023-03-03T20:12:46;97675.38;;;3.27;70.94
75008;BME280;63554;48.940;12.050;2023-03-03T20:17:01;97678.72;;;3.13;71.49
75008;BME280;63554;48.940;12.050;2023-03-03T20:21:15;97677.34;;;3.01;72.31
75008;BME280;63554;48.940;12.050;2023-03-03T20:25:23;97679.97;;;2.84;72.53
75008;BME280;63554;48.940;12.050;2023-03-03T20:29:39;97676.94;;;2.71;72.49
75008;BME280;63554;48.940;12.050;2023-03-03T20:33:54;97674.72;;;2.58;71.60
75008;BME280;63554;48.940;12.050;2023-03-03T20:38:11;97683.88;;;2.47;71.02
75008;BME280;63554;48.940;12.050;2023-03-03T20:42:29;97692.81;;;2.30;72.55
75008;BME280;63554;48.940;12.050;2023-03-03T20:46:42;97690.88;;;2.14;73.92
75008;BME280;63554;48.940;12.050;2023-03-03T20:50:58;97692.69;;;2.13;73.57
75008;BME280;63554;48.940;12.050;2023-03-03T20:55:12;97700.09;;;2.20;73.28
75008;BME280;63554;48.940;12.050;2023-03-03T20:59:25;97694.56;;;2.21;72.15
75008;BME280;63554;48.940;12.050;2023-03-03T21:03:31;97694.47;;;2.31;70.55
75008;BME280;63554;48.940;12.050;2023-03-03T21:07:34;97708.03;;;2.37;68.54
75008;BME280;63554;48.940;12.050;2023-03-03T21:11:42;97704.19;;;2.40;67.44
75008;BME280;63554;48.940;12.050;2023-03-03T21:15:53;97709.03;;;2.45;69.62
75008;BME280;63554;48.940;12.050;2023-03-03T21:20:17;97706.88;;;2.40;71.05
75008;BME280;63554;48.940;12.050;2023-03-03T21:24:20;97711.34;;;2.31;71.61
75008;BME280;63554;48.940;12.050;2023-03-03T21:28:25;97717.13;;;2.27;71.29
75008;BME280;63554;48.940;12.050;2023-03-03T21:32:36;97727.66;;;2.28;71.08
75008;BME280;63554;48.940;12.050;2023-03-03T21:36:44;97718.44;;;2.23;70.80
75008;BME280;63554;48.940;12.050;2023-03-03T21:40:58;97710.41;;;2.14;71.10
75008;BME280;63554;48.940;12.050;2023-03-03T21:45:10;97710.66;;;2.03;71.90
75008;BME280;63554;48.940;12.050;2023-03-03T21:49:13;97716.91;;;1.94;72.12
75008;BME280;63554;48.940;12.050;2023-03-03T21:53:16;97719.25;;;1.89;71.17
75008;BME280;63554;48.940;12.050;2023-03-03T21:57:20;97727.25;;;1.89;70.63
75008;BME280;63554;48.940;12.050;2023-03-03T22:01:24;97722.34;;;1.84;70.25
75008;BME280;63554;48.940;12.050;2023-03-03T22:05:27;97718.50;;;1.78;70.33
75008;BME280;63554;48.940;12.050;2023-03-03T22:09:29;97727.00;;;1.82;70.29